Time;durP1;ratioP1;P1;durP2;ratioP2;P2;SDS_P1;SDS_P2;PMS_P1;PMS_P2;Temp;Humidity;BMP_temperature;BMP_pressure;BME280_temperature;BME280_humidity;BME280_pressure;Samples;Min_cycle;Max_cycle;Signal;HPM_P1;HPM_P2
2022/12/03 07:29:33;;;;;;;32.00;18.70;;;;;;;;;;5171489;27;20425;-95
2022/12/03 07:32:01;;;;;;;82.43;44.45;;;;;;;;;;5141631;27;20057;-96
2022/12/03 07:34:27;;;;;;;34.67;20.88;;;;;;;;;;5117736;27;20052;-96
2022/12/03 07:36:53;;;;;;;28.98;16.92;;;;;;;;;;5150874;27;20034;-95
2022/12/03 07:39:34;;;;;;;18.08;10.80;;;;;;;;;;5150279;27;20053;-95
2022/12/03 07:42:01;;;;;;;18.80;11.95;;;;;;;;;;5165708;27;20031;-95
2022/12/03 07:44:27;;;;;;;21.40;11.85;;;;;;;;;;5146795;27;20015;-96
2022/12/03 07:46:53;;;;;;;23.23;11.60;;;;;;;;;;5159971;27;20390;-88
2022/12/03 07:49:19;;;;;;;17.02;10.52;;;;;;;;;;5137474;27;20394;-89
2022/12/03 07:51:52;;;;;;;17.08;10.02;;;;;;;;;;5136905;27;20351;-89
2022/12/03 07:54:19;;;;;;;16.45;9.68;;;;;;;;;;5154558;27;20039;-88
2022/12/03 07:56:46;;;;;;;18.20;10.57;;;;;;;;;;5136650;27;20360;-88
2022/12/03 07:59:13;;;;;;;19.40;10.88;;;;;;;;;;5154368;27;20030;-89
2022/12/03 08:01:39;;;;;;;17.30;9.88;;;;;;;;;;5137273;27;20110;-89
2022/12/03 08:04:05;;;;;;;19.75;10.15;;;;;;;;;;5154351;27;20026;-92
2022/12/03 08:06:31;;;;;;;22.98;11.73;;;;;;;;;;5116410;28;20406;-96
2022/12/03 08:09:26;;;;;;;20.77;11.45;;;;;;;;;;5110412;28;20031;-96
2022/12/03 08:14:56;;;;;;;35.38;14.45;;;;;;;;;;5414294;22;20037;-96
2022/12/03 08:19:58;;;;;;;51.30;29.58;;;;;;;;;;5684681;22;20049;-95
2022/12/03 08:22:24;;;;;;;35.33;21.15;;;;;;;;;;5016613;28;20041;-94
2022/12/03 08:24:50;;;;;;;49.13;26.98;;;;;;;;;;5016711;28;20026;-95
2022/12/03 08:27:17;;;;;;;102.85;61.33;;;;;;;;;;5016758;28;20405;-95
2022/12/03 08:29:43;;;;;;;73.07;41.42;;;;;;;;;;5025823;28;20049;-96
2022/12/03 08:32:12;;;;;;;65.68;34.47;;;;;;;;;;5024272;28;20063;-96
2022/12/03 08:34:40;;;;;;;25.05;14.68;;;;;;;;;;5024044;28;20054;-96
2022/12/03 08:37:10;;;;;;;33.25;16.63;;;;;;;;;;5030732;28;20026;-95
2022/12/03 08:39:41;;;;;;;23.45;13.27;;;;;;;;;;5034438;28;20018;-96
2022/12/03 08:45:18;;;;;;;48.85;24.80;;;;;;;;;;5032777;28;20037;-96
2022/12/03 08:47:44;;;;;;;26.38;13.48;;;;;;;;;;5006941;28;20058;-96
2022/12/03 08:50:37;;;;;;;84.60;41.67;;;;;;;;;;4999794;28;20038;-89
2022/12/03 08:53:16;;;;;;;48.85;23.90;;;;;;;;;;5017618;28;20034;-90
2022/12/03 08:55:47;;;;;;;37.78;23.65;;;;;;;;;;5005808;28;20029;-94
2022/12/03 08:58:18;;;;;;;32.42;23.10;;;;;;;;;;5024041;28;20381;-95
2022/12/03 09:00:45;;;;;;;25.75;17.40;;;;;;;;;;5006904;28;20349;-96
2022/12/03 09:03:14;;;;;;;28.10;19.73;;;;;;;;;;5021843;28;20421;-96
2022/12/03 09:05:41;;;;;;;20.55;15.32;;;;;;;;;;5007350;28;20048;-96
2022/12/03 09:08:07;;;;;;;18.20;12.10;;;;;;;;;;5006321;28;20030;-95
2022/12/03 09:10:33;;;;;;;21.65;12.80;;;;;;;;;;5027280;28;20105;-95
2022/12/03 09:13:05;;;;;;;63.03;40.45;;;;;;;;;;5032877;28;20030;-96
2022/12/03 09:15:32;;;;;;;20.67;12.02;;;;;;;;;;5013420;28;20030;-95
2022/12/03 09:18:00;;;;;;;34.03;24.15;;;;;;;;;;5030690;28;20041;-96
2022/12/03 09:20:26;;;;;;;40.72;22.92;;;;;;;;;;5050079;23;20056;-95
2022/12/03 09:22:53;;;;;;;62.47;37.63;;;;;;;;;;5073254;28;20028;-96
2022/12/03 09:25:19;;;;;;;57.03;36.80;;;;;;;;;;5074070;28;20055;-96
2022/12/03 09:27:46;;;;;;;57.25;48.58;;;;;;;;;;5090592;28;20027;-95
2022/12/03 09:30:12;;;;;;;35.20;27.67;;;;;;;;;;5073086;28;20024;-95
2022/12/03 09:32:39;;;;;;;64.90;42.17;;;;;;;;;;5075196;28;20025;-95
2022/12/03 09:35:31;;;;;;;54.42;42.35;;;;;;;;;;5067617;23;20048;-95
2022/12/03 09:37:58;;;;;;;63.55;35.78;;;;;;;;;;5072228;28;20037;-96
2022/12/03 09:40:27;;;;;;;58.38;33.33;;;;;;;;;;5071589;28;20037;-96
2022/12/03 09:42:57;;;;;;;42.08;24.77;;;;;;;;;;5070686;28;20117;-95
2022/12/03 09:45:36;;;;;;;61.22;39.65;;;;;;;;;;5054704;28;20025;-96
2022/12/03 09:48:05;;;;;;;60.35;38.38;;;;;;;;;;5069158;28;20032;-95
2022/12/03 09:50:34;;;;;;;65.32;30.80;;;;;;;;;;5063624;28;20067;-96
2022/12/03 09:53:03;;;;;;;49.25;23.50;;;;;;;;;;5067837;28;20061;-96
2022/12/03 09:55:30;;;;;;;55.38;30.95;;;;;;;;;;5071882;28;20025;-95
2022/12/03 09:57:57;;;;;;;56.50;32.53;;;;;;;;;;5070541;28;20053;-95
2022/12/03 10:00:25;;;;;;;51.03;26.48;;;;;;;;;;5051203;28;20025;-96
2022/12/03 10:02:52;;;;;;;62.97;32.90;;;;;;;;;;5051854;28;20021;-95
2022/12/03 10:05:21;;;;;;;82.45;36.85;;;;;;;;;;5070697;28;20028;-96
2022/12/03 10:07:48;;;;;;;100.40;45.35;;;;;;;;;;5033646;28;20033;-95
2022/12/03 10:13:25;;;;;;;23.90;14.23;;;;;;;;;;5067224;28;20028;-96
2022/12/03 10:15:52;;;;;;;28.25;15.68;;;;;;;;;;5046951;28;20029;-95
2022/12/03 10:18:20;;;;;;;42.30;25.13;;;;;;;;;;5043402;28;20025;-96
2022/12/03 10:20:46;;;;;;;41.42;20.85;;;;;;;;;;5059932;28;20028;-95
2022/12/03 10:23:25;;;;;;;37.17;16.42;;;;;;;;;;5059669;28;20029;-95
2022/12/03 10:25:53;;;;;;;67.95;50.55;;;;;;;;;;5063065;28;20021;-95
2022/12/03 10:28:35;;;;;;;36.72;22.45;;;;;;;;;;5065854;28;20025;-93
2022/12/03 10:31:03;;;;;;;65.82;37.80;;;;;;;;;;5047319;28;20047;-95
2022/12/03 10:33:34;;;;;;;42.22;37.65;;;;;;;;;;5066566;28;20092;-96
2022/12/03 10:36:19;;;;;;;49.20;24.38;;;;;;;;;;5047992;28;20056;-96
2022/12/03 10:38:46;;;;;;;52.50;19.88;;;;;;;;;;5064106;28;20037;-95
2022/12/03 10:44:18;;;;;;;52.90;20.23;;;;;;;;;;5063788;28;20032;-96
2022/12/03 10:46:45;;;;;;;39.75;25.55;;;;;;;;;;5045785;28;20029;-95
2022/12/03 10:49:15;;;;;;;70.55;57.78;;;;;;;;;;5047519;28;20335;-95
2022/12/03 10:51:47;;;;;;;61.28;47.17;;;;;;;;;;5064208;28;20081;-94
2022/12/03 10:54:22;;;;;;;57.05;32.55;;;;;;;;;;5046174;28;20017;-95
2022/12/03 10:56:49;;;;;;;50.10;30.98;;;;;;;;;;5045604;28;20163;-95
2022/12/03 10:59:16;;;;;;;38.75;23.73;;;;;;;;;;5063788;28;20024;-95
2022/12/03 11:01:42;;;;;;;50.92;38.25;;;;;;;;;;5062850;28;20308;-95
2022/12/03 11:04:14;;;;;;;45.80;24.92;;;;;;;;;;5062312;28;20036;-96
2022/12/03 11:06:40;;;;;;;37.67;21.27;;;;;;;;;;5063762;28;20041;-95
2022/12/03 11:09:13;;;;;;;70.20;53.10;;;;;;;;;;5046414;28;20064;-96
2022/12/03 11:11:39;;;;;;;67.30;37.10;;;;;;;;;;5060097;28;20379;-95
2022/12/03 11:14:05;;;;;;;50.05;32.10;;;;;;;;;;5058800;28;20036;-93
2022/12/03 11:16:41;;;;;;;55.78;37.75;;;;;;;;;;5056415;28;20025;-94
2022/12/03 11:19:17;;;;;;;72.75;50.20;;;;;;;;;;5040153;28;20028;-93
2022/12/03 11:22:02;;;;;;;62.90;34.00;;;;;;;;;;5057544;28;20021;-93
2022/12/03 11:24:28;;;;;;;37.80;22.20;;;;;;;;;;5057344;28;20025;-94
2022/12/03 11:26:54;;;;;;;40.17;26.05;;;;;;;;;;5057640;28;20021;-94
2022/12/03 11:29:40;;;;;;;29.98;20.17;;;;;;;;;;5056512;28;20090;-93
2022/12/03 11:32:06;;;;;;;34.10;19.13;;;;;;;;;;5056296;28;20036;-93
2022/12/03 11:34:32;;;;;;;30.42;18.67;;;;;;;;;;5057260;28;20057;-93
2022/12/03 11:37:11;;;;;;;29.17;20.38;;;;;;;;;;5046885;28;20339;-94
2022/12/03 11:39:49;;;;;;;35.63;20.25;;;;;;;;;;5040117;28;20032;-94
2022/12/03 11:42:24;;;;;;;30.65;20.70;;;;;;;;;;5057517;28;20021;-95
2022/12/03 11:45:03;;;;;;;33.17;21.35;;;;;;;;;;5056567;28;20021;-95
2022/12/03 11:47:33;;;;;;;33.80;22.40;;;;;;;;;;5056074;28;20056;-95
2022/12/03 11:49:59;;;;;;;25.98;15.48;;;;;;;;;;5040308;28;20022;-95
2022/12/03 11:52:30;;;;;;;26.77;20.10;;;;;;;;;;5039988;28;20025;-95
2022/12/03 11:55:04;;;;;;;37.17;25.38;;;;;;;;;;5040413;28;20107;-95
2022/12/03 11:57:37;;;;;;;30.70;20.20;;;;;;;;;;5057525;28;20029;-95
2022/12/03 12:00:13;;;;;;;29.73;18.27;;;;;;;;;;5059628;28;20028;-94
2022/12/03 12:02:41;;;;;;;54.38;39.38;;;;;;;;;;5059354;28;20029;-95
2022/12/03 12:05:18;;;;;;;42.75;30.27;;;;;;;;;;5062724;28;20029;-94
2022/12/03 12:07:46;;;;;;;24.63;17.27;;;;;;;;;;5062808;28;20029;-94
2022/12/03 12:10:12;;;;;;;37.63;22.83;;;;;;;;;;5047731;28;20029;-95
2022/12/03 12:12:45;;;;;;;29.98;17.73;;;;;;;;;;5064169;28;20064;-96
2022/12/03 12:15:30;;;;;;;31.23;18.67;;;;;;;;;;5063356;28;20048;-96
2022/12/03 12:17:56;;;;;;;29.73;16.77;;;;;;;;;;5047157;28;20027;-96
2022/12/03 12:20:24;;;;;;;34.17;19.75;;;;;;;;;;5064734;28;20463;-96
2022/12/03 12:22:51;;;;;;;31.42;19.15;;;;;;;;;;5063589;28;20119;-96
2022/12/03 12:25:29;;;;;;;30.65;18.25;;;;;;;;;;5045662;28;20025;-95
2022/12/03 12:27:56;;;;;;;30.88;16.48;;;;;;;;;;5045164;28;20025;-96
2022/12/03 12:30:22;;;;;;;29.20;16.30;;;;;;;;;;5044681;28;20113;-96
2022/12/03 12:32:49;;;;;;;34.60;22.92;;;;;;;;;;5045600;28;20024;-95
2022/12/03 12:35:17;;;;;;;68.40;48.05;;;;;;;;;;5062499;28;20350;-96
2022/12/03 12:37:48;;;;;;;70.85;42.90;;;;;;;;;;5061992;28;20025;-91
2022/12/03 12:40:16;;;;;;;68.15;28.25;;;;;;;;;;5059304;28;20075;-89
2022/12/03 12:42:52;;;;;;;61.00;31.17;;;;;;;;;;5042793;28;20025;-89
2022/12/03 12:45:24;;;;;;;39.65;20.40;;;;;;;;;;5060876;28;20293;-95
2022/12/03 12:48:00;;;;;;;87.38;38.22;;;;;;;;;;5048206;28;20393;-95
2022/12/03 12:50:26;;;;;;;48.22;27.45;;;;;;;;;;5046118;28;20032;-95
2022/12/03 12:52:54;;;;;;;42.17;24.27;;;;;;;;;;5065673;28;20422;-96
2022/12/03 12:55:22;;;;;;;38.70;19.92;;;;;;;;;;5060580;28;20025;-88
2022/12/03 12:57:48;;;;;;;30.70;18.58;;;;;;;;;;5060053;28;20033;-92
2022/12/03 13:00:15;;;;;;;22.60;15.30;;;;;;;;;;5042328;28;20152;-92
2022/12/03 13:02:48;;;;;;;28.23;16.02;;;;;;;;;;5042072;28;20028;-91
2022/12/03 13:05:14;;;;;;;18.58;11.57;;;;;;;;;;5058995;28;20037;-92
2022/12/03 13:07:41;;;;;;;28.33;16.27;;;;;;;;;;5042009;28;20112;-94
2022/12/03 13:10:27;;;;;;;20.35;13.20;;;;;;;;;;5041695;28;20060;-91
2022/12/03 13:12:53;;;;;;;30.38;16.00;;;;;;;;;;5042068;28;20438;-91
2022/12/03 13:15:35;;;;;;;25.40;15.07;;;;;;;;;;5059507;28;20021;-91
2022/12/03 13:18:06;;;;;;;46.83;21.27;;;;;;;;;;5041951;28;20025;-91
2022/12/03 13:20:32;;;;;;;45.08;23.23;;;;;;;;;;5042113;28;20422;-89
2022/12/03 13:22:58;;;;;;;124.57;45.83;;;;;;;;;;5041638;28;20033;-91
2022/12/03 13:25:34;;;;;;;98.07;40.67;;;;;;;;;;5059354;28;20021;-87
2022/12/03 13:28:00;;;;;;;66.45;30.95;;;;;;;;;;5059162;28;20021;-86
2022/12/03 13:30:27;;;;;;;96.80;39.58;;;;;;;;;;5059162;28;20068;-86
2022/12/03 13:32:53;;;;;;;76.32;34.42;;;;;;;;;;5040981;28;20037;-86
2022/12/03 13:35:34;;;;;;;125.97;45.72;;;;;;;;;;5041562;28;20059;-87
2022/12/03 13:38:01;;;;;;;55.10;26.85;;;;;;;;;;5059252;28;20104;-87
2022/12/03 13:40:29;;;;;;;31.17;18.20;;;;;;;;;;5058926;28;20025;-88
2022/12/03 13:42:55;;;;;;;49.53;25.48;;;;;;;;;;5058985;28;20025;-87
2022/12/03 13:45:23;;;;;;;32.85;17.20;;;;;;;;;;5058921;28;20051;-87
2022/12/03 13:47:55;;;;;;;32.33;18.27;;;;;;;;;;5059058;28;20032;-87
2022/12/03 13:50:32;;;;;;;81.88;33.70;;;;;;;;;;5058996;28;20044;-87
2022/12/03 13:52:59;;;;;;;226.88;86.13;;;;;;;;;;5058839;28;20411;-86
2022/12/03 13:55:27;;;;;;;74.20;34.13;;;;;;;;;;5041311;28;20025;-86
2022/12/03 13:57:53;;;;;;;33.08;17.40;;;;;;;;;;5041037;28;20021;-87
2022/12/03 14:00:19;;;;;;;30.33;15.68;;;;;;;;;;5058291;28;20071;-86
2022/12/03 14:02:45;;;;;;;31.92;14.52;;;;;;;;;;5040749;28;20327;-86
2022/12/03 14:05:11;;;;;;;26.45;14.82;;;;;;;;;;5058616;28;20029;-86
2022/12/03 14:07:37;;;;;;;27.90;14.65;;;;;;;;;;5058378;28;20120;-86
2022/12/03 14:10:04;;;;;;;26.67;14.82;;;;;;;;;;5058437;28;20029;-86
2022/12/03 14:12:32;;;;;;;23.85;14.07;;;;;;;;;;5040842;28;20033;-86
2022/12/03 14:15:02;;;;;;;45.80;31.15;;;;;;;;;;5058364;28;20441;-89
2022/12/03 14:17:29;;;;;;;24.33;18.05;;;;;;;;;;5058564;28;20062;-86
2022/12/03 14:19:55;;;;;;;21.23;13.73;;;;;;;;;;5058288;28;20025;-86
2022/12/03 14:22:22;;;;;;;19.70;12.52;;;;;;;;;;5058232;28;20019;-86
2022/12/03 14:24:48;;;;;;;24.02;13.15;;;;;;;;;;5058226;28;20323;-86
2022/12/03 14:27:14;;;;;;;25.02;13.40;;;;;;;;;;5057573;28;20056;-86
2022/12/03 14:29:40;;;;;;;19.10;12.10;;;;;;;;;;5058335;28;20025;-86
2022/12/03 14:32:06;;;;;;;19.27;12.40;;;;;;;;;;5058246;28;20025;-86
2022/12/03 14:34:33;;;;;;;21.52;13.13;;;;;;;;;;5057636;28;20064;-89
2022/12/03 14:36:59;;;;;;;21.23;12.27;;;;;;;;;;5058154;28;20024;-89
2022/12/03 14:39:25;;;;;;;19.67;11.85;;;;;;;;;;5040319;28;20025;-89
2022/12/03 14:44:35;;;;;;;22.02;12.25;;;;;;;;;;5058139;28;20028;-89
2022/12/03 14:47:02;;;;;;;23.63;14.13;;;;;;;;;;5057766;28;20503;-89
2022/12/03 14:49:28;;;;;;;20.67;12.60;;;;;;;;;;5040275;28;20029;-89
2022/12/03 14:51:54;;;;;;;18.65;11.70;;;;;;;;;;5039659;28;20442;-90
2022/12/03 14:54:20;;;;;;;18.35;11.57;;;;;;;;;;5040382;28;20027;-89
2022/12/03 14:56:46;;;;;;;20.70;12.35;;;;;;;;;;5057480;28;20416;-90
2022/12/03 14:59:12;;;;;;;19.42;11.15;;;;;;;;;;5057315;28;20028;-89
2022/12/03 15:01:39;;;;;;;20.95;12.30;;;;;;;;;;5040267;28;20032;-89
2022/12/03 15:04:05;;;;;;;20.38;12.38;;;;;;;;;;5039805;28;20052;-89
2022/12/03 15:06:31;;;;;;;25.10;14.93;;;;;;;;;;5057542;28;20055;-90
2022/12/03 15:08:57;;;;;;;24.80;14.27;;;;;;;;;;5040085;28;20032;-90
2022/12/03 15:11:23;;;;;;;27.55;14.70;;;;;;;;;;5039822;28;20524;-90
2022/12/03 15:13:49;;;;;;;30.38;17.00;;;;;;;;;;5057747;28;20025;-87
2022/12/03 15:16:15;;;;;;;23.83;14.52;;;;;;;;;;5039859;28;20036;-91
2022/12/03 15:18:41;;;;;;;26.63;14.88;;;;;;;;;;5039480;28;20087;-90
2022/12/03 15:21:07;;;;;;;34.35;16.52;;;;;;;;;;5039946;28;20025;-91
2022/12/03 15:23:33;;;;;;;39.75;18.92;;;;;;;;;;5057394;28;20045;-90
2022/12/03 15:25:59;;;;;;;37.40;17.95;;;;;;;;;;5039872;28;20025;-85
2022/12/03 15:28:26;;;;;;;44.50;19.48;;;;;;;;;;5039324;28;20033;-85
2022/12/03 15:30:52;;;;;;;42.60;19.65;;;;;;;;;;5057674;28;20025;-90
2022/12/03 15:33:18;;;;;;;53.72;24.30;;;;;;;;;;5057548;28;20048;-90
2022/12/03 15:35:45;;;;;;;51.65;23.30;;;;;;;;;;5057108;28;20064;-86
2022/12/03 15:38:11;;;;;;;35.08;18.98;;;;;;;;;;5057239;28;20036;-84
2022/12/03 15:40:37;;;;;;;33.53;18.60;;;;;;;;;;5043167;28;20017;-86
2022/12/03 15:43:04;;;;;;;30.02;17.75;;;;;;;;;;5061294;28;20303;-86
2022/12/03 15:45:30;;;;;;;34.75;21.77;;;;;;;;;;5032423;28;20032;-86
2022/12/03 15:47:56;;;;;;;44.35;24.15;;;;;;;;;;5043611;28;20033;-85
2022/12/03 15:50:22;;;;;;;34.08;19.35;;;;;;;;;;5043569;28;20029;-85
2022/12/03 15:52:48;;;;;;;28.75;16.10;;;;;;;;;;5049745;28;20078;-87
2022/12/03 15:55:15;;;;;;;25.45;15.50;;;;;;;;;;5060914;28;20112;-87
2022/12/03 16:00:44;;;;;;;29.45;17.08;;;;;;;;;;5042327;28;20040;-86
2022/12/03 16:03:10;;;;;;;30.90;17.80;;;;;;;;;;5039053;28;20075;-87
2022/12/03 16:05:36;;;;;;;32.15;17.60;;;;;;;;;;5025815;28;20087;-86
2022/12/03 16:08:02;;;;;;;34.45;19.90;;;;;;;;;;5042520;28;20091;-87
2022/12/03 16:10:28;;;;;;;30.40;18.38;;;;;;;;;;5060926;28;20017;-87
2022/12/03 16:13:13;;;;;;;30.45;17.23;;;;;;;;;;5027007;28;20033;-87
2022/12/03 16:15:39;;;;;;;29.90;17.92;;;;;;;;;;5022865;28;20452;-88
2022/12/03 16:18:05;;;;;;;29.40;17.90;;;;;;;;;;5041858;28;20040;-88
2022/12/03 16:20:31;;;;;;;28.10;17.77;;;;;;;;;;5040711;28;20018;-88
2022/12/03 16:22:57;;;;;;;29.67;16.63;;;;;;;;;;5022695;28;20073;-88
2022/12/03 16:25:23;;;;;;;37.88;19.80;;;;;;;;;;5040862;28;20033;-86
2022/12/03 16:27:49;;;;;;;30.10;17.83;;;;;;;;;;5036792;28;20075;-86
2022/12/03 16:30:15;;;;;;;26.45;14.73;;;;;;;;;;5042565;28;20040;-87
2022/12/03 16:32:41;;;;;;;36.42;20.85;;;;;;;;;;5057287;28;20037;-87
2022/12/03 16:35:07;;;;;;;37.78;20.52;;;;;;;;;;5048829;28;20045;-87
2022/12/03 16:37:33;;;;;;;41.00;19.23;;;;;;;;;;5046804;28;20060;-87
2022/12/03 16:40:00;;;;;;;35.15;16.83;;;;;;;;;;5035437;28;20021;-86
2022/12/03 16:42:26;;;;;;;28.65;15.95;;;;;;;;;;5042180;28;20056;-85
2022/12/03 16:47:27;;;;;;;26.67;16.10;;;;;;;;;;5041261;28;20033;-86
2022/12/03 16:49:53;;;;;;;25.80;16.10;;;;;;;;;;5042255;28;20025;-87
2022/12/03 16:52:19;;;;;;;30.15;18.02;;;;;;;;;;5053939;28;20056;-87
2022/12/03 16:54:45;;;;;;;24.83;15.68;;;;;;;;;;5030923;28;20060;-87
2022/12/03 16:57:12;;;;;;;25.08;13.95;;;;;;;;;;5031573;28;20359;-86
2022/12/03 16:59:38;;;;;;;27.00;15.55;;;;;;;;;;5035132;28;20025;-86
2022/12/03 17:02:04;;;;;;;22.23;15.35;;;;;;;;;;5028042;28;20099;-87
2022/12/03 17:04:30;;;;;;;22.55;15.38;;;;;;;;;;5046934;28;20033;-87
2022/12/03 17:06:56;;;;;;;22.33;14.98;;;;;;;;;;5039950;28;20315;-88
2022/12/03 17:09:22;;;;;;;23.25;15.15;;;;;;;;;;5045437;28;20028;-88
2022/12/03 17:11:48;;;;;;;41.63;16.65;;;;;;;;;;5049826;28;20021;-87
2022/12/03 17:14:14;;;;;;;34.95;16.80;;;;;;;;;;5058564;28;20143;-85
2022/12/03 17:16:40;;;;;;;27.92;16.27;;;;;;;;;;5039775;28;20026;-86
2022/12/03 17:19:07;;;;;;;32.50;17.50;;;;;;;;;;5022448;28;20091;-87
2022/12/03 17:21:33;;;;;;;38.70;20.10;;;;;;;;;;5066568;22;20400;-92
2022/12/03 17:24:30;;;;;;;28.67;17.25;;;;;;;;;;5045947;28;20014;-94
2022/12/03 17:26:58;;;;;;;26.08;16.85;;;;;;;;;;5053701;28;20033;-92
2022/12/03 17:29:58;;;;;;;27.85;16.40;;;;;;;;;;5063549;28;20021;-96
2022/12/03 17:32:32;;;;;;;29.42;18.52;;;;;;;;;;5422884;23;20062;-85
2022/12/03 17:34:59;;;;;;;26.05;17.17;;;;;;;;;;5021790;28;20040;-94
2022/12/03 17:37:37;;;;;;;27.05;16.55;;;;;;;;;;5044190;28;20079;-95
2022/12/03 17:40:04;;;;;;;26.63;16.38;;;;;;;;;;5047483;28;20025;-96
2022/12/03 17:50:18;;;;;;;30.63;18.05;;;;;;;;;;5802927;22;20037;-94
2022/12/03 17:52:47;;;;;;;38.42;21.52;;;;;;;;;;5079119;28;20024;-93
2022/12/03 17:55:13;;;;;;;44.53;23.52;;;;;;;;;;5061073;28;20028;-93
2022/12/03 17:57:39;;;;;;;46.67;24.77;;;;;;;;;;5078877;28;20116;-94
2022/12/03 18:00:05;;;;;;;49.08;22.15;;;;;;;;;;5061525;28;20028;-95
2022/12/03 18:02:31;;;;;;;68.65;29.83;;;;;;;;;;5078529;28;20025;-93
2022/12/03 18:04:57;;;;;;;57.92;26.80;;;;;;;;;;5078616;28;20043;-92
2022/12/03 18:07:23;;;;;;;50.95;24.48;;;;;;;;;;5078822;28;20082;-92
2022/12/03 18:09:49;;;;;;;42.20;21.80;;;;;;;;;;5078708;28;20104;-94
2022/12/03 18:12:15;;;;;;;45.72;22.65;;;;;;;;;;5079189;28;20086;-93
2022/12/03 18:14:42;;;;;;;56.75;26.33;;;;;;;;;;5061821;28;20024;-95
2022/12/03 18:17:08;;;;;;;44.25;22.92;;;;;;;;;;5060628;28;20288;-96
2022/12/03 18:19:34;;;;;;;46.00;24.35;;;;;;;;;;5061073;28;20029;-96
2022/12/03 18:22:10;;;;;;;66.90;33.35;;;;;;;;;;5066013;28;20025;-96
2022/12/03 18:24:36;;;;;;;54.58;29.05;;;;;;;;;;5067490;28;20017;-96
2022/12/03 18:27:21;;;;;;;40.63;23.17;;;;;;;;;;5397545;23;20053;-94
2022/12/03 18:29:47;;;;;;;29.20;19.15;;;;;;;;;;5078699;28;20032;-95
2022/12/03 18:32:13;;;;;;;29.45;15.82;;;;;;;;;;5061627;28;20430;-94
2022/12/03 18:34:41;;;;;;;22.77;14.95;;;;;;;;;;5078864;28;20036;-94
2022/12/03 18:37:10;;;;;;;26.70;16.73;;;;;;;;;;5078512;28;20033;-93
2022/12/03 18:39:36;;;;;;;28.08;17.52;;;;;;;;;;5081426;28;20020;-95
2022/12/03 18:42:12;;;;;;;29.95;17.55;;;;;;;;;;5082719;28;20335;-94
2022/12/03 18:44:51;;;;;;;28.08;17.50;;;;;;;;;;5084072;28;20131;-96
2022/12/03 19:29:24;;;;;;;57.67;24.08;;;;;;;;;;4932000;29;20051;-94
2022/12/03 19:31:50;;;;;;;57.58;25.92;;;;;;;;;;4925452;29;20032;-95
2022/12/03 19:34:18;;;;;;;58.95;27.25;;;;;;;;;;4921574;29;20407;-95
2022/12/03 19:36:44;;;;;;;68.13;29.75;;;;;;;;;;4941189;29;20051;-95
2022/12/03 19:39:10;;;;;;;72.13;30.00;;;;;;;;;;4935120;29;20032;-96
2022/12/03 19:41:53;;;;;;;56.00;24.63;;;;;;;;;;4929134;29;20016;-95
2022/12/03 19:44:21;;;;;;;54.05;23.95;;;;;;;;;;4915529;29;20032;-96
2022/12/03 20:00:18;;;;;;;42.33;22.67;;;;;;;;;;5167860;23;20055;-91
2022/12/03 20:02:44;;;;;;;52.20;24.38;;;;;;;;;;4923442;29;20078;-89
2022/12/03 20:05:10;;;;;;;45.30;24.08;;;;;;;;;;4940236;29;20031;-93
2022/12/03 20:07:36;;;;;;;43.42;21.52;;;;;;;;;;4922581;29;20082;-91
2022/12/03 20:10:03;;;;;;;44.72;22.48;;;;;;;;;;4939493;29;20027;-90
2022/12/03 20:12:29;;;;;;;49.30;23.13;;;;;;;;;;4939662;29;20047;-92
2022/12/03 20:14:55;;;;;;;39.95;20.20;;;;;;;;;;4923218;29;20031;-91
2022/12/03 20:17:21;;;;;;;47.42;21.10;;;;;;;;;;4923023;29;20051;-93
2022/12/03 20:19:47;;;;;;;43.10;20.92;;;;;;;;;;4939676;29;20019;-91
2022/12/03 20:22:13;;;;;;;42.03;19.77;;;;;;;;;;4922694;29;20035;-92
2022/12/03 20:24:39;;;;;;;44.20;21.50;;;;;;;;;;4940021;29;20415;-91
2022/12/03 20:27:24;;;;;;;43.08;20.55;;;;;;;;;;4926258;29;20039;-92
2022/12/03 20:29:50;;;;;;;43.88;21.85;;;;;;;;;;4943081;29;20430;-92
2022/12/03 20:32:16;;;;;;;39.20;19.70;;;;;;;;;;4926234;29;20466;-91
2022/12/03 20:34:45;;;;;;;34.97;18.67;;;;;;;;;;4943275;29;20046;-92
2022/12/03 20:37:12;;;;;;;41.85;22.05;;;;;;;;;;4942842;29;20032;-92
2022/12/03 20:39:38;;;;;;;65.68;29.75;;;;;;;;;;4926215;29;20035;-92
2022/12/03 20:42:04;;;;;;;49.10;25.42;;;;;;;;;;4943271;29;20148;-92
2022/12/03 20:44:30;;;;;;;49.05;22.15;;;;;;;;;;4926532;29;20039;-92
2022/12/03 20:46:56;;;;;;;65.18;27.90;;;;;;;;;;4926031;29;20119;-92
2022/12/03 20:49:22;;;;;;;61.70;24.35;;;;;;;;;;4942637;29;20024;-92
2022/12/03 20:51:49;;;;;;;59.08;22.05;;;;;;;;;;4925974;29;20059;-93
2022/12/03 20:54:15;;;;;;;77.63;27.48;;;;;;;;;;4942632;29;20066;-91
2022/12/03 20:56:41;;;;;;;66.57;25.20;;;;;;;;;;4942987;29;20099;-94
2022/12/03 20:59:11;;;;;;;62.40;28.50;;;;;;;;;;4925907;29;20023;-93
2022/12/03 21:01:38;;;;;;;75.47;33.10;;;;;;;;;;4942733;29;20047;-94
2022/12/03 21:04:05;;;;;;;56.80;23.67;;;;;;;;;;4942285;29;20031;-92
2022/12/03 21:06:32;;;;;;;44.22;19.35;;;;;;;;;;4942487;29;20023;-93
2022/12/03 21:08:59;;;;;;;37.30;18.83;;;;;;;;;;4942215;29;20031;-93
2022/12/03 21:11:30;;;;;;;36.58;18.75;;;;;;;;;;4942731;29;20054;-94
2022/12/03 21:13:57;;;;;;;34.25;17.73;;;;;;;;;;4942602;29;20296;-94
2022/12/03 21:16:24;;;;;;;33.17;16.52;;;;;;;;;;4942351;29;20411;-94
2022/12/03 21:18:51;;;;;;;34.25;16.40;;;;;;;;;;4925516;29;20536;-93
2022/12/03 21:21:17;;;;;;;30.65;14.10;;;;;;;;;;4925350;29;20064;-93
2022/12/03 21:23:44;;;;;;;25.20;14.05;;;;;;;;;;4942087;29;20057;-93
2022/12/03 21:26:11;;;;;;;26.95;14.45;;;;;;;;;;4941772;29;20426;-93
2022/12/03 21:31:41;;;;;;;29.80;15.63;;;;;;;;;;4941871;29;20147;-94
2022/12/03 21:34:07;;;;;;;32.38;18.80;;;;;;;;;;4925391;29;20072;-94
2022/12/03 21:36:33;;;;;;;48.58;24.85;;;;;;;;;;4925347;29;20071;-93
2022/12/03 21:39:00;;;;;;;46.38;22.35;;;;;;;;;;4925010;29;20035;-94
2022/12/03 21:41:28;;;;;;;44.97;20.25;;;;;;;;;;4941761;29;20104;-93
2022/12/03 21:43:54;;;;;;;37.03;16.95;;;;;;;;;;4941668;29;20059;-93
2022/12/03 21:46:20;;;;;;;30.50;15.32;;;;;;;;;;4925011;29;20067;-92
2022/12/03 21:48:48;;;;;;;28.35;14.48;;;;;;;;;;4941331;29;20035;-93
2022/12/03 21:51:15;;;;;;;28.33;15.43;;;;;;;;;;4941922;29;20024;-92
2022/12/03 21:53:41;;;;;;;44.15;21.77;;;;;;;;;;4941767;29;20502;-93
2022/12/03 21:56:12;;;;;;;75.40;29.58;;;;;;;;;;4924946;29;20046;-92
2022/12/03 22:01:41;;;;;;;43.55;19.98;;;;;;;;;;4938535;29;20062;-93
2022/12/03 22:04:07;;;;;;;33.53;17.65;;;;;;;;;;4924979;29;20114;-94
2022/12/03 22:06:33;;;;;;;33.55;18.70;;;;;;;;;;4924527;29;20047;-92
2022/12/03 22:08:59;;;;;;;29.85;17.10;;;;;;;;;;4941405;29;20032;-94
2022/12/03 22:11:25;;;;;;;32.38;17.20;;;;;;;;;;4941613;29;20032;-94
2022/12/03 22:14:11;;;;;;;27.13;13.90;;;;;;;;;;4941493;29;20044;-92
2022/12/03 22:16:37;;;;;;;25.55;12.90;;;;;;;;;;4941188;29;20024;-93
2022/12/03 22:19:03;;;;;;;26.23;12.80;;;;;;;;;;4940828;29;20027;-94
2022/12/03 22:21:29;;;;;;;29.52;14.85;;;;;;;;;;4924510;29;20122;-95
2022/12/03 22:23:55;;;;;;;28.65;13.60;;;;;;;;;;4924674;29;20054;-93
2022/12/03 22:26:22;;;;;;;27.23;13.75;;;;;;;;;;4924199;29;20035;-94
2022/12/03 22:28:49;;;;;;;34.95;17.92;;;;;;;;;;4940760;29;20035;-93
2022/12/03 22:31:16;;;;;;;28.08;14.07;;;;;;;;;;4941074;29;20040;-93
2022/12/03 22:33:44;;;;;;;28.50;13.90;;;;;;;;;;4940520;29;20468;-93
2022/12/03 22:36:11;;;;;;;31.45;14.25;;;;;;;;;;4924014;29;20035;-93
2022/12/03 22:38:37;;;;;;;30.25;13.93;;;;;;;;;;4923917;29;20020;-92
2022/12/03 22:41:05;;;;;;;27.33;13.65;;;;;;;;;;4941057;29;20103;-92
2022/12/03 22:46:46;;;;;;;31.30;14.18;;;;;;;;;;4941031;29;20078;-91
2022/12/03 22:49:13;;;;;;;24.27;11.98;;;;;;;;;;4923582;29;20039;-92
2022/12/03 22:51:39;;;;;;;31.70;14.68;;;;;;;;;;4924062;29;20066;-92
2022/12/03 22:54:05;;;;;;;28.90;14.52;;;;;;;;;;4923800;29;20102;-93
2022/12/03 22:56:31;;;;;;;36.85;17.10;;;;;;;;;;4940776;29;20056;-94
2022/12/03 23:02:01;;;;;;;26.50;13.77;;;;;;;;;;4939923;29;20050;-92
2022/12/03 23:04:27;;;;;;;29.88;15.68;;;;;;;;;;4940420;29;20036;-91
2022/12/03 23:06:53;;;;;;;27.02;13.77;;;;;;;;;;4923640;29;20031;-93
2022/12/03 23:09:19;;;;;;;23.75;12.35;;;;;;;;;;4923035;29;20036;-92
2022/12/03 23:11:48;;;;;;;26.13;14.25;;;;;;;;;;4940391;29;20178;-92
2022/12/03 23:17:17;;;;;;;19.27;10.73;;;;;;;;;;4940225;29;20441;-92
2022/12/03 23:19:43;;;;;;;24.63;11.27;;;;;;;;;;4923619;29;20023;-92
2022/12/03 23:22:09;;;;;;;17.08;8.98;;;;;;;;;;4923479;29;20071;-92
2022/12/03 23:24:43;;;;;;;16.90;9.45;;;;;;;;;;4940320;29;20430;-92
2022/12/03 23:27:09;;;;;;;18.58;9.30;;;;;;;;;;4940529;29;20039;-92
2022/12/03 23:32:39;;;;;;;15.85;8.73;;;;;;;;;;4940333;29;20042;-92
2022/12/03 23:35:05;;;;;;;15.50;7.97;;;;;;;;;;4940038;29;20028;-95
2022/12/03 23:37:31;;;;;;;16.15;8.77;;;;;;;;;;4940011;29;20027;-93